Spirit of Dana Point — WDA5763 — position and weather

sailwx.info

Track history (hours):
 
Tides and Currents Weather Stations Pressure Air Temp Water Temp Dewpoint Dewpoint Depression Visibility Wind Speed Wind Dir Waves Ship Positions

Spirit of Dana Point (United States)

Ship's website: http://www.danapointharbor.com/Spirit.htm

Owner: OCEAN INSTITUTE, DANA POINT, CA. More information available from US FCC via Universal Licensing System and Coast Guard Vessel Documentation Center.

Last reported at 2017-Feb-20 16:33 UTC. Time now 2017-Feb-23 07:17 UTC.
Position N 33°28' W 117°42'.

Length 37 m.

Type: Ship. MMSI: 366823550.

Date/timePositionNaut miles runAvg speedWind from/ knotsBaromVisibWave heightAir tempDewpointWater temp
2017-Feb-20 16:33N 33°28' W 117°42'2 1.9
2017-Feb-20 15:33N 33°26' W 117°42'7 7.0
2017-Feb-20 14:34N 33°19' W 117°39'7 7.2
2017-Feb-20 13:33N 33°13' W 117°35'7 7.1
2017-Feb-20 12:33N 33°06' W 117°31'7 7.0
2017-Feb-20 11:33N 33°00' W 117°28'7 6.9
2017-Feb-20 10:33N 32°54' W 117°25'7 6.9
2017-Feb-20 09:33N 32°47' W 117°21'7 6.8
2017-Feb-20 08:33N 32°41' W 117°18'4 3.5
2017-Feb-20 07:33N 32°40' W 117°14'4 4.1
2017-Feb-20 06:33N 32°41' W 117°09'5 4.3
2017-Feb-20 05:29N 32°37' W 117°06'1 0.2
2017-Feb-20 01:34N 32°38' W 117°07'6 5.8
2017-Feb-20 00:33N 32°43' W 117°11'2 1.9
2017-Feb-19 23:34N 32°44' W 117°13'2 1.9
2017-Feb-19 22:31N 32°43' W 117°10'0 0.0
2017-Feb-19 21:19N 32°43' W 117°10'0 0.0
2017-Feb-19 20:25N 32°43' W 117°10'0 0.0
2017-Feb-19 16:08N 32°43' W 117°10'0 0.0
2017-Feb-19 15:33N 32°43' W 117°10'0 0.0
2017-Feb-19 14:22N 32°43' W 117°10'0 0.0
2017-Feb-19 13:20N 32°43' W 117°10'0 0.0
2017-Feb-19 12:33N 32°43' W 117°10'0 0.0
2017-Feb-19 11:15N 32°43' W 117°10'0 0.0
2017-Feb-19 10:12N 32°43' W 117°10'0 0.4
2017-Feb-19 09:30N 32°43' W 117°11'3 3.6
2017-Feb-19 08:33N 32°41' W 117°14'6 5.9
2017-Feb-19 07:33N 32°37' W 117°19'6 6.2
2017-Feb-19 06:33N 32°43' W 117°21'6 6.3
2017-Feb-19 05:33N 32°49' W 117°21'6 6.5
2017-Feb-19 04:33N 32°55' W 117°22'6 6.1
2017-Feb-19 03:33N 33°01' W 117°23'6 6.1
2017-Feb-19 02:33N 33°07' W 117°25'5 5.4
2017-Feb-19 01:34N 33°13' W 117°26'6 5.8
2017-Feb-19 00:34N 33°16' W 117°32'5 5.4
2017-Feb-18 23:34N 33°19' W 117°37'3 3.3
2017-Feb-18 22:33N 33°20' W 117°41'5 4.6
2017-Feb-18 21:34N 33°25' W 117°41'3 2.9
2017-Feb-18 20:33N 33°28' W 117°42'0 0.0
2017-Feb-18 19:34N 33°28' W 117°42'  
Track history (hours):
 
Tides and Currents Weather Stations Pressure Air Temp Water Temp Dewpoint Dewpoint Depression Visibility Wind Speed Wind Dir Waves Ship Positions

Spirit of Dana Point (United States)

Ship's website: http://www.danapointharbor.com/Spirit.htm

Owner: OCEAN INSTITUTE, DANA POINT, CA. More information available from US FCC via Universal Licensing System and Coast Guard Vessel Documentation Center.

Last reported at 2017-Feb-20 16:33 UTC. Time now 2017-Feb-23 07:17 UTC.
Position N 33°28' W 117°42'.

Length 37 m.

Type: Ship. MMSI: 366823550.

Date/timePositionNaut miles runAvg speedWind from/ knotsBaromVisibWave heightAir tempDewpointWater temp
2017-Feb-20 16:33N 33°28' W 117°42'2 1.9
2017-Feb-20 15:33N 33°26' W 117°42'7 7.0
2017-Feb-20 14:34N 33°19' W 117°39'7 7.2
2017-Feb-20 13:33N 33°13' W 117°35'7 7.1
2017-Feb-20 12:33N 33°06' W 117°31'7 7.0
2017-Feb-20 11:33N 33°00' W 117°28'7 6.9
2017-Feb-20 10:33N 32°54' W 117°25'7 6.9
2017-Feb-20 09:33N 32°47' W 117°21'7 6.8
2017-Feb-20 08:33N 32°41' W 117°18'4 3.5
2017-Feb-20 07:33N 32°40' W 117°14'4 4.1
2017-Feb-20 06:33N 32°41' W 117°09'5 4.3
2017-Feb-20 05:29N 32°37' W 117°06'1 0.2
2017-Feb-20 01:34N 32°38' W 117°07'6 5.8
2017-Feb-20 00:33N 32°43' W 117°11'2 1.9
2017-Feb-19 23:34N 32°44' W 117°13'2 1.9
2017-Feb-19 22:31N 32°43' W 117°10'0 0.0
2017-Feb-19 21:19N 32°43' W 117°10'0 0.0
2017-Feb-19 20:25N 32°43' W 117°10'0 0.0
2017-Feb-19 16:08N 32°43' W 117°10'0 0.0
2017-Feb-19 15:33N 32°43' W 117°10'0 0.0
2017-Feb-19 14:22N 32°43' W 117°10'0 0.0
2017-Feb-19 13:20N 32°43' W 117°10'0 0.0
2017-Feb-19 12:33N 32°43' W 117°10'0 0.0
2017-Feb-19 11:15N 32°43' W 117°10'0 0.0
2017-Feb-19 10:12N 32°43' W 117°10'0 0.4
2017-Feb-19 09:30N 32°43' W 117°11'3 3.6
2017-Feb-19 08:33N 32°41' W 117°14'6 5.9
2017-Feb-19 07:33N 32°37' W 117°19'6 6.2
2017-Feb-19 06:33N 32°43' W 117°21'6 6.3
2017-Feb-19 05:33N 32°49' W 117°21'6 6.5
2017-Feb-19 04:33N 32°55' W 117°22'6 6.1
2017-Feb-19 03:33N 33°01' W 117°23'6 6.1
2017-Feb-19 02:33N 33°07' W 117°25'5 5.4
2017-Feb-19 01:34N 33°13' W 117°26'6 5.8
2017-Feb-19 00:34N 33°16' W 117°32'5 5.4
2017-Feb-18 23:34N 33°19' W 117°37'3 3.3
2017-Feb-18 22:33N 33°20' W 117°41'5 4.6
2017-Feb-18 21:34N 33°25' W 117°41'3 2.9
2017-Feb-18 20:33N 33°28' W 117°42'0 0.0
2017-Feb-18 19:34N 33°28' W 117°42'  

Dump ship's entire track history